sensor_id;sensor_type;location;lat;lon;timestamp;P1;durP1;ratioP1;P2;durP2;ratioP2
29238;SDS011;16267;48.194;11.546;2023-05-07T00:00:05;15.30;;;10.90;;
29238;SDS011;16267;48.194;11.546;2023-05-07T00:02:33;15.15;;;10.60;;
29238;SDS011;16267;48.194;11.546;2023-05-07T00:04:59;15.48;;;10.95;;
29238;SDS011;16267;48.194;11.546;2023-05-07T00:07:24;16.83;;;11.50;;
29238;SDS011;16267;48.194;11.546;2023-05-07T00:09:50;17.27;;;11.10;;
29238;SDS011;16267;48.194;11.546;2023-05-07T00:12:16;13.23;;;10.32;;
29238;SDS011;16267;48.194;11.546;2023-05-07T00:14:42;13.25;;;9.77;;
29238;SDS011;16267;48.194;11.546;2023-05-07T00:17:07;18.50;;;10.20;;
29238;SDS011;16267;48.194;11.546;2023-05-07T00:19:33;15.20;;;9.60;;
29238;SDS011;16267;48.194;11.546;2023-05-07T00:21:59;14.60;;;10.15;;
29238;SDS011;16267;48.194;11.546;2023-05-07T00:24:25;15.18;;;10.40;;
29238;SDS011;16267;48.194;11.546;2023-05-07T00:26:50;15.05;;;10.25;;
29238;SDS011;16267;48.194;11.546;2023-05-07T00:29:17;15.80;;;10.35;;
29238;SDS011;16267;48.194;11.546;2023-05-07T00:31:43;15.07;;;10.10;;
29238;SDS011;16267;48.194;11.546;2023-05-07T00:34:09;16.52;;;10.73;;
29238;SDS011;16267;48.194;11.546;2023-05-07T00:36:35;17.95;;;10.23;;
29238;SDS011;16267;48.194;11.546;2023-05-07T00:39:01;17.75;;;11.10;;
29238;SDS011;16267;48.194;11.546;2023-05-07T00:41:28;16.30;;;10.57;;
29238;SDS011;16267;48.194;11.546;2023-05-07T00:43:55;15.63;;;9.82;;
29238;SDS011;16267;48.194;11.546;2023-05-07T00:46:21;16.58;;;9.55;;
29238;SDS011;16267;48.194;11.546;2023-05-07T00:48:49;14.95;;;9.93;;
29238;SDS011;16267;48.194;11.546;2023-05-07T00:51:16;17.58;;;10.00;;
29238;SDS011;16267;48.194;11.546;2023-05-07T00:53:43;16.27;;;10.15;;
29238;SDS011;16267;48.194;11.546;2023-05-07T00:56:09;14.48;;;10.55;;
29238;SDS011;16267;48.194;11.546;2023-05-07T00:58:36;16.55;;;10.10;;
29238;SDS011;16267;48.194;11.546;2023-05-07T01:01:02;20.30;;;11.05;;
29238;SDS011;16267;48.194;11.546;2023-05-07T01:03:28;13.85;;;9.68;;
29238;SDS011;16267;48.194;11.546;2023-05-07T01:05:54;18.60;;;10.60;;
29238;SDS011;16267;48.194;11.546;2023-05-07T01:08:24;17.50;;;9.88;;
29238;SDS011;16267;48.194;11.546;2023-05-07T01:10:53;18.83;;;9.60;;
29238;SDS011;16267;48.194;11.546;2023-05-07T01:13:21;15.60;;;10.20;;
29238;SDS011;16267;48.194;11.546;2023-05-07T01:15:47;17.27;;;9.27;;
29238;SDS011;16267;48.194;11.546;2023-05-07T01:18:12;20.42;;;10.57;;
29238;SDS011;16267;48.194;11.546;2023-05-07T01:20:39;18.40;;;11.00;;
29238;SDS011;16267;48.194;11.546;2023-05-07T01:23:05;19.85;;;11.35;;
29238;SDS011;16267;48.194;11.546;2023-05-07T01:25:32;16.90;;;11.13;;
29238;SDS011;16267;48.194;11.546;2023-05-07T01:27:58;17.98;;;11.20;;
29238;SDS011;16267;48.194;11.546;2023-05-07T01:30:27;19.55;;;10.68;;
29238;SDS011;16267;48.194;11.546;2023-05-07T01:33:04;14.18;;;9.07;;
29238;SDS011;16267;48.194;11.546;2023-05-07T01:35:37;14.55;;;9.10;;
29238;SDS011;16267;48.194;11.546;2023-05-07T01:38:08;17.33;;;9.80;;
29238;SDS011;16267;48.194;11.546;2023-05-07T01:40:34;15.93;;;9.75;;
29238;SDS011;16267;48.194;11.546;2023-05-07T01:43:01;15.35;;;9.57;;
29238;SDS011;16267;48.194;11.546;2023-05-07T01:45:28;14.00;;;10.18;;
29238;SDS011;16267;48.194;11.546;2023-05-07T01:47:56;13.07;;;8.93;;
29238;SDS011;16267;48.194;11.546;2023-05-07T01:50:23;13.48;;;9.35;;
29238;SDS011;16267;48.194;11.546;2023-05-07T01:52:50;15.52;;;9.15;;
29238;SDS011;16267;48.194;11.546;2023-05-07T01:55:16;14.90;;;8.77;;
29238;SDS011;16267;48.194;11.546;2023-05-07T01:57:42;17.50;;;10.02;;
29238;SDS011;16267;48.194;11.546;2023-05-07T02:00:08;15.90;;;9.75;;
29238;SDS011;16267;48.194;11.546;2023-05-07T02:02:34;13.40;;;9.32;;
29238;SDS011;16267;48.194;11.546;2023-05-07T02:05:00;13.98;;;9.32;;
29238;SDS011;16267;48.194;11.546;2023-05-07T02:07:27;14.93;;;9.90;;
29238;SDS011;16267;48.194;11.546;2023-05-07T02:09:53;14.07;;;9.55;;
29238;SDS011;16267;48.194;11.546;2023-05-07T02:12:20;13.23;;;9.10;;
29238;SDS011;16267;48.194;11.546;2023-05-07T02:14:46;16.08;;;9.50;;
29238;SDS011;16267;48.194;11.546;2023-05-07T02:17:12;14.05;;;8.30;;
29238;SDS011;16267;48.194;11.546;2023-05-07T02:19:38;14.32;;;8.68;;
29238;SDS011;16267;48.194;11.546;2023-05-07T02:22:04;13.73;;;9.05;;
29238;SDS011;16267;48.194;11.546;2023-05-07T02:24:29;12.38;;;8.63;;
29238;SDS011;16267;48.194;11.546;2023-05-07T02:26:55;13.82;;;9.18;;
29238;SDS011;16267;48.194;11.546;2023-05-07T02:29:21;13.52;;;8.32;;
29238;SDS011;16267;48.194;11.546;2023-05-07T02:31:46;15.70;;;9.98;;
29238;SDS011;16267;48.194;11.546;2023-05-07T02:34:15;13.25;;;8.38;;
29238;SDS011;16267;48.194;11.546;2023-05-07T02:36:42;14.95;;;8.40;;
29238;SDS011;16267;48.194;11.546;2023-05-07T02:39:08;12.07;;;8.63;;
29238;SDS011;16267;48.194;11.546;2023-05-07T02:41:33;11.35;;;8.38;;
29238;SDS011;16267;48.194;11.546;2023-05-07T02:43:59;15.80;;;9.20;;
29238;SDS011;16267;48.194;11.546;2023-05-07T02:46:25;15.15;;;8.02;;
29238;SDS011;16267;48.194;11.546;2023-05-07T02:48:51;12.73;;;7.57;;
29238;SDS011;16267;48.194;11.546;2023-05-07T02:51:20;13.57;;;9.00;;
29238;SDS011;16267;48.194;11.546;2023-05-07T02:53:47;12.13;;;8.65;;
29238;SDS011;16267;48.194;11.546;2023-05-07T02:56:13;12.63;;;7.65;;
29238;SDS011;16267;48.194;11.546;2023-05-07T02:58:39;10.35;;;7.70;;
29238;SDS011;16267;48.194;11.546;2023-05-07T03:01:05;10.88;;;7.93;;
29238;SDS011;16267;48.194;11.546;2023-05-07T03:03:31;11.38;;;7.70;;
29238;SDS011;16267;48.194;11.546;2023-05-07T03:05:57;18.88;;;8.00;;
29238;SDS011;16267;48.194;11.546;2023-05-07T03:08:23;10.80;;;7.80;;
29238;SDS011;16267;48.194;11.546;2023-05-07T03:10:49;11.13;;;8.05;;
29238;SDS011;16267;48.194;11.546;2023-05-07T03:13:16;12.80;;;7.47;;
29238;SDS011;16267;48.194;11.546;2023-05-07T03:15:42;15.63;;;8.32;;
29238;SDS011;16267;48.194;11.546;2023-05-07T03:18:07;10.55;;;7.70;;
29238;SDS011;16267;48.194;11.546;2023-05-07T03:20:33;13.80;;;7.70;;
29238;SDS011;16267;48.194;11.546;2023-05-07T03:22:59;12.02;;;7.97;;
29238;SDS011;16267;48.194;11.546;2023-05-07T03:25:25;11.07;;;7.50;;
29238;SDS011;16267;48.194;11.546;2023-05-07T03:27:51;11.75;;;7.90;;
29238;SDS011;16267;48.194;11.546;2023-05-07T03:30:16;13.43;;;8.68;;
29238;SDS011;16267;48.194;11.546;2023-05-07T03:32:42;15.85;;;8.55;;
29238;SDS011;16267;48.194;11.546;2023-05-07T03:35:08;14.30;;;9.45;;
29238;SDS011;16267;48.194;11.546;2023-05-07T03:37:34;12.55;;;8.48;;
29238;SDS011;16267;48.194;11.546;2023-05-07T03:40:00;10.55;;;7.68;;
29238;SDS011;16267;48.194;11.546;2023-05-07T03:42:27;11.52;;;7.50;;
29238;SDS011;16267;48.194;11.546;2023-05-07T03:44:54;12.32;;;8.00;;
29238;SDS011;16267;48.194;11.546;2023-05-07T03:47:19;11.43;;;7.68;;
29238;SDS011;16267;48.194;11.546;2023-05-07T03:49:45;9.68;;;7.45;;
29238;SDS011;16267;48.194;11.546;2023-05-07T03:52:11;12.38;;;7.00;;
29238;SDS011;16267;48.194;11.546;2023-05-07T03:54:36;12.15;;;7.47;;
29238;SDS011;16267;48.194;11.546;2023-05-07T03:57:02;9.23;;;7.55;;
29238;SDS011;16267;48.194;11.546;2023-05-07T03:59:28;9.55;;;7.38;;
29238;SDS011;16267;48.194;11.546;2023-05-07T04:01:53;11.40;;;7.65;;
29238;SDS011;16267;48.194;11.546;2023-05-07T04:04:19;9.90;;;7.93;;
29238;SDS011;16267;48.194;11.546;2023-05-07T04:06:46;12.02;;;7.18;;
29238;SDS011;16267;48.194;11.546;2023-05-07T04:09:11;14.95;;;7.43;;
29238;SDS011;16267;48.194;11.546;2023-05-07T04:11:37;10.13;;;7.25;;
29238;SDS011;16267;48.194;11.546;2023-05-07T04:14:05;11.90;;;7.25;;
29238;SDS011;16267;48.194;11.546;2023-05-07T04:16:31;13.75;;;7.95;;
29238;SDS011;16267;48.194;11.546;2023-05-07T04:18:57;11.55;;;7.75;;
29238;SDS011;16267;48.194;11.546;2023-05-07T04:21:22;14.73;;;7.65;;
29238;SDS011;16267;48.194;11.546;2023-05-07T04:23:48;10.65;;;8.52;;
29238;SDS011;16267;48.194;11.546;2023-05-07T04:26:15;13.27;;;7.72;;
29238;SDS011;16267;48.194;11.546;2023-05-07T04:28:41;11.18;;;7.63;;
29238;SDS011;16267;48.194;11.546;2023-05-07T04:31:09;10.00;;;7.60;;
29238;SDS011;16267;48.194;11.546;2023-05-07T04:33:34;14.85;;;8.13;;
29238;SDS011;16267;48.194;11.546;2023-05-07T04:36:03;12.85;;;7.40;;
29238;SDS011;16267;48.194;11.546;2023-05-07T04:38:30;10.93;;;7.45;;
29238;SDS011;16267;48.194;11.546;2023-05-07T04:40:56;12.30;;;7.38;;
29238;SDS011;16267;48.194;11.546;2023-05-07T04:43:28;12.20;;;6.95;;
29238;SDS011;16267;48.194;11.546;2023-05-07T04:45:53;11.57;;;7.10;;
29238;SDS011;16267;48.194;11.546;2023-05-07T04:48:19;12.00;;;6.95;;
29238;SDS011;16267;48.194;11.546;2023-05-07T04:50:52;11.60;;;7.80;;
29238;SDS011;16267;48.194;11.546;2023-05-07T04:53:18;11.65;;;7.97;;
29238;SDS011;16267;48.194;11.546;2023-05-07T04:55:55;11.82;;;7.88;;
29238;SDS011;16267;48.194;11.546;2023-05-07T04:58:22;12.48;;;8.25;;
29238;SDS011;16267;48.194;11.546;2023-05-07T05:00:52;12.10;;;8.27;;
29238;SDS011;16267;48.194;11.546;2023-05-07T05:03:17;11.25;;;7.88;;
29238;SDS011;16267;48.194;11.546;2023-05-07T05:05:43;10.93;;;7.60;;
29238;SDS011;16267;48.194;11.546;2023-05-07T05:08:09;16.05;;;8.82;;
29238;SDS011;16267;48.194;11.546;2023-05-07T05:10:38;10.70;;;8.73;;
29238;SDS011;16267;48.194;11.546;2023-05-07T05:13:04;12.68;;;8.77;;
29238;SDS011;16267;48.194;11.546;2023-05-07T05:15:29;11.88;;;7.88;;
29238;SDS011;16267;48.194;11.546;2023-05-07T05:17:55;15.63;;;8.18;;
29238;SDS011;16267;48.194;11.546;2023-05-07T05:20:21;11.27;;;7.57;;
29238;SDS011;16267;48.194;11.546;2023-05-07T05:22:47;12.30;;;7.50;;
29238;SDS011;16267;48.194;11.546;2023-05-07T05:25:12;12.75;;;7.70;;
29238;SDS011;16267;48.194;11.546;2023-05-07T05:27:38;16.42;;;7.05;;
29238;SDS011;16267;48.194;11.546;2023-05-07T05:30:04;14.30;;;7.93;;
29238;SDS011;16267;48.194;11.546;2023-05-07T05:32:30;10.07;;;7.43;;
29238;SDS011;16267;48.194;11.546;2023-05-07T05:34:56;13.45;;;8.30;;
29238;SDS011;16267;48.194;11.546;2023-05-07T05:37:24;12.20;;;8.25;;
29238;SDS011;16267;48.194;11.546;2023-05-07T05:39:50;12.38;;;8.93;;
29238;SDS011;16267;48.194;11.546;2023-05-07T05:42:17;13.35;;;9.27;;
29238;SDS011;16267;48.194;11.546;2023-05-07T05:44:43;13.70;;;8.70;;
29238;SDS011;16267;48.194;11.546;2023-05-07T05:47:09;15.93;;;7.90;;
29238;SDS011;16267;48.194;11.546;2023-05-07T05:49:34;11.00;;;6.93;;
29238;SDS011;16267;48.194;11.546;2023-05-07T05:52:00;10.88;;;7.53;;
29238;SDS011;16267;48.194;11.546;2023-05-07T05:54:26;10.45;;;6.20;;
29238;SDS011;16267;48.194;11.546;2023-05-07T05:56:52;9.25;;;6.38;;
29238;SDS011;16267;48.194;11.546;2023-05-07T05:59:18;8.55;;;5.68;;
29238;SDS011;16267;48.194;11.546;2023-05-07T06:01:43;9.52;;;5.72;;
29238;SDS011;16267;48.194;11.546;2023-05-07T06:04:09;7.50;;;5.30;;
29238;SDS011;16267;48.194;11.546;2023-05-07T06:06:35;11.85;;;5.20;;
29238;SDS011;16267;48.194;11.546;2023-05-07T06:11:26;9.93;;;4.78;;
29238;SDS011;16267;48.194;11.546;2023-05-07T06:13:52;8.77;;;4.65;;
29238;SDS011;16267;48.194;11.546;2023-05-07T06:16:18;5.20;;;4.05;;
29238;SDS011;16267;48.194;11.546;2023-05-07T06:18:43;11.32;;;4.90;;
29238;SDS011;16267;48.194;11.546;2023-05-07T06:21:13;8.05;;;5.00;;
29238;SDS011;16267;48.194;11.546;2023-05-07T06:23:40;6.32;;;4.35;;
29238;SDS011;16267;48.194;11.546;2023-05-07T06:26:06;5.60;;;4.28;;
29238;SDS011;16267;48.194;11.546;2023-05-07T06:28:32;6.57;;;4.70;;
29238;SDS011;16267;48.194;11.546;2023-05-07T06:31:18;9.95;;;4.63;;
29238;SDS011;16267;48.194;11.546;2023-05-07T06:33:48;4.90;;;4.28;;
29238;SDS011;16267;48.194;11.546;2023-05-07T06:36:14;5.75;;;4.30;;
29238;SDS011;16267;48.194;11.546;2023-05-07T06:38:42;5.55;;;4.57;;
29238;SDS011;16267;48.194;11.546;2023-05-07T06:41:11;6.72;;;4.60;;
29238;SDS011;16267;48.194;11.546;2023-05-07T06:43:36;4.55;;;3.85;;
29238;SDS011;16267;48.194;11.546;2023-05-07T06:46:02;5.15;;;3.63;;
29238;SDS011;16267;48.194;11.546;2023-05-07T06:48:28;8.40;;;3.85;;
29238;SDS011;16267;48.194;11.546;2023-05-07T06:50:54;4.63;;;3.10;;
29238;SDS011;16267;48.194;11.546;2023-05-07T06:53:20;4.03;;;3.35;;
29238;SDS011;16267;48.194;11.546;2023-05-07T06:55:46;5.57;;;3.20;;
29238;SDS011;16267;48.194;11.546;2023-05-07T06:58:12;7.68;;;3.53;;
29238;SDS011;16267;48.194;11.546;2023-05-07T07:00:37;3.92;;;3.03;;
29238;SDS011;16267;48.194;11.546;2023-05-07T07:03:03;8.63;;;3.50;;
29238;SDS011;16267;48.194;11.546;2023-05-07T07:05:29;8.02;;;3.88;;
29238;SDS011;16267;48.194;11.546;2023-05-07T07:07:55;5.60;;;2.90;;
29238;SDS011;16267;48.194;11.546;2023-05-07T07:10:21;7.65;;;3.17;;
29238;SDS011;16267;48.194;11.546;2023-05-07T07:12:47;4.60;;;2.80;;
29238;SDS011;16267;48.194;11.546;2023-05-07T07:15:14;6.00;;;2.67;;
29238;SDS011;16267;48.194;11.546;2023-05-07T07:17:40;4.40;;;2.70;;
29238;SDS011;16267;48.194;11.546;2023-05-07T07:20:06;6.72;;;2.85;;
29238;SDS011;16267;48.194;11.546;2023-05-07T07:22:33;4.07;;;3.20;;
29238;SDS011;16267;48.194;11.546;2023-05-07T07:24:58;4.32;;;3.20;;
29238;SDS011;16267;48.194;11.546;2023-05-07T07:27:24;6.43;;;2.92;;
29238;SDS011;16267;48.194;11.546;2023-05-07T07:29:52;7.00;;;3.03;;
29238;SDS011;16267;48.194;11.546;2023-05-07T07:35:25;8.00;;;3.85;;
29238;SDS011;16267;48.194;11.546;2023-05-07T07:37:51;4.93;;;2.85;;
29238;SDS011;16267;48.194;11.546;2023-05-07T07:40:22;8.07;;;3.67;;
29238;SDS011;16267;48.194;11.546;2023-05-07T07:42:49;7.05;;;3.97;;
29238;SDS011;16267;48.194;11.546;2023-05-07T07:45:16;5.55;;;3.53;;
29238;SDS011;16267;48.194;11.546;2023-05-07T07:47:54;12.10;;;3.67;;
29238;SDS011;16267;48.194;11.546;2023-05-07T07:50:20;5.93;;;3.58;;
29238;SDS011;16267;48.194;11.546;2023-05-07T07:52:46;7.43;;;3.60;;
29238;SDS011;16267;48.194;11.546;2023-05-07T07:55:13;6.55;;;3.28;;
29238;SDS011;16267;48.194;11.546;2023-05-07T07:57:42;5.90;;;3.78;;
29238;SDS011;16267;48.194;11.546;2023-05-07T08:03:30;5.13;;;3.28;;
29238;SDS011;16267;48.194;11.546;2023-05-07T08:05:57;6.40;;;3.58;;
29238;SDS011;16267;48.194;11.546;2023-05-07T08:08:23;6.88;;;4.07;;
29238;SDS011;16267;48.194;11.546;2023-05-07T08:10:48;8.93;;;3.65;;
29238;SDS011;16267;48.194;11.546;2023-05-07T08:13:15;5.60;;;2.88;;
29238;SDS011;16267;48.194;11.546;2023-05-07T08:15:42;5.63;;;2.95;;
29238;SDS011;16267;48.194;11.546;2023-05-07T08:18:08;7.78;;;3.20;;
29238;SDS011;16267;48.194;11.546;2023-05-07T08:20:35;6.05;;;3.30;;
29238;SDS011;16267;48.194;11.546;2023-05-07T08:26:15;8.85;;;3.92;;
29238;SDS011;16267;48.194;11.546;2023-05-07T08:28:41;7.40;;;4.15;;
29238;SDS011;16267;48.194;11.546;2023-05-07T08:31:07;7.75;;;3.28;;
29238;SDS011;16267;48.194;11.546;2023-05-07T08:33:32;7.32;;;3.50;;
29238;SDS011;16267;48.194;11.546;2023-05-07T08:36:01;6.22;;;3.35;;
29238;SDS011;16267;48.194;11.546;2023-05-07T08:38:26;5.53;;;3.47;;
29238;SDS011;16267;48.194;11.546;2023-05-07T08:40:52;6.90;;;3.20;;
29238;SDS011;16267;48.194;11.546;2023-05-07T08:43:18;6.03;;;3.15;;
29238;SDS011;16267;48.194;11.546;2023-05-07T08:45:51;5.32;;;3.45;;
29238;SDS011;16267;48.194;11.546;2023-05-07T08:48:20;5.00;;;2.80;;
29238;SDS011;16267;48.194;11.546;2023-05-07T08:50:50;3.47;;;2.58;;
29238;SDS011;16267;48.194;11.546;2023-05-07T08:53:16;4.78;;;3.00;;
29238;SDS011;16267;48.194;11.546;2023-05-07T08:55:42;4.93;;;2.35;;
29238;SDS011;16267;48.194;11.546;2023-05-07T09:00:56;5.18;;;2.70;;
29238;SDS011;16267;48.194;11.546;2023-05-07T09:03:22;6.53;;;2.33;;
29238;SDS011;16267;48.194;11.546;2023-05-07T09:05:48;8.13;;;2.50;;
29238;SDS011;16267;48.194;11.546;2023-05-07T09:08:14;4.05;;;2.70;;
29238;SDS011;16267;48.194;11.546;2023-05-07T09:10:41;3.03;;;2.33;;
29238;SDS011;16267;48.194;11.546;2023-05-07T09:13:07;5.50;;;2.30;;
29238;SDS011;16267;48.194;11.546;2023-05-07T09:15:38;5.97;;;2.50;;
29238;SDS011;16267;48.194;11.546;2023-05-07T09:18:04;4.32;;;2.63;;
29238;SDS011;16267;48.194;11.546;2023-05-07T09:20:30;6.78;;;2.63;;
29238;SDS011;16267;48.194;11.546;2023-05-07T09:22:56;5.10;;;2.20;;
29238;SDS011;16267;48.194;11.546;2023-05-07T09:28:15;4.63;;;2.90;;
29238;SDS011;16267;48.194;11.546;2023-05-07T09:30:44;3.50;;;2.03;;
29238;SDS011;16267;48.194;11.546;2023-05-07T09:33:10;3.65;;;2.20;;
29238;SDS011;16267;48.194;11.546;2023-05-07T09:35:37;2.30;;;1.88;;
29238;SDS011;16267;48.194;11.546;2023-05-07T09:38:03;7.22;;;2.55;;
29238;SDS011;16267;48.194;11.546;2023-05-07T09:40:29;5.07;;;2.22;;
29238;SDS011;16267;48.194;11.546;2023-05-07T09:46:19;2.85;;;2.42;;
29238;SDS011;16267;48.194;11.546;2023-05-07T09:48:55;3.67;;;2.17;;
29238;SDS011;16267;48.194;11.546;2023-05-07T09:54:08;5.53;;;2.63;;
29238;SDS011;16267;48.194;11.546;2023-05-07T09:56:35;6.60;;;2.75;;
29238;SDS011;16267;48.194;11.546;2023-05-07T09:59:02;5.15;;;3.10;;
29238;SDS011;16267;48.194;11.546;2023-05-07T10:01:31;3.95;;;2.92;;
29238;SDS011;16267;48.194;11.546;2023-05-07T10:03:57;4.68;;;3.20;;
29238;SDS011;16267;48.194;11.546;2023-05-07T10:06:24;3.10;;;2.40;;
29238;SDS011;16267;48.194;11.546;2023-05-07T10:08:51;4.72;;;2.92;;
29238;SDS011;16267;48.194;11.546;2023-05-07T10:11:19;6.18;;;2.90;;
29238;SDS011;16267;48.194;11.546;2023-05-07T10:13:48;5.13;;;2.70;;
29238;SDS011;16267;48.194;11.546;2023-05-07T10:16:14;5.18;;;3.17;;
29238;SDS011;16267;48.194;11.546;2023-05-07T10:21:24;4.43;;;2.33;;
29238;SDS011;16267;48.194;11.546;2023-05-07T10:24:04;3.35;;;1.98;;
29238;SDS011;16267;48.194;11.546;2023-05-07T10:26:45;3.25;;;1.90;;
29238;SDS011;16267;48.194;11.546;2023-05-07T10:29:30;3.90;;;2.00;;
29238;SDS011;16267;48.194;11.546;2023-05-07T10:32:24;2.85;;;1.90;;
29238;SDS011;16267;48.194;11.546;2023-05-07T10:34:54;6.38;;;2.85;;
29238;SDS011;16267;48.194;11.546;2023-05-07T10:40:11;2.97;;;1.90;;
29238;SDS011;16267;48.194;11.546;2023-05-07T10:42:38;7.05;;;2.70;;
29238;SDS011;16267;48.194;11.546;2023-05-07T10:45:11;3.70;;;2.30;;
29238;SDS011;16267;48.194;11.546;2023-05-07T10:50:42;5.75;;;2.53;;
29238;SDS011;16267;48.194;11.546;2023-05-07T10:53:20;4.68;;;2.33;;
29238;SDS011;16267;48.194;11.546;2023-05-07T10:58:49;4.50;;;2.60;;
29238;SDS011;16267;48.194;11.546;2023-05-07T11:01:15;3.95;;;2.53;;
29238;SDS011;16267;48.194;11.546;2023-05-07T11:04:31;5.15;;;2.80;;
29238;SDS011;16267;48.194;11.546;2023-05-07T11:07:16;5.90;;;2.80;;
29238;SDS011;16267;48.194;11.546;2023-05-07T11:17:34;5.70;;;2.38;;
29238;SDS011;16267;48.194;11.546;2023-05-07T11:20:17;3.20;;;2.35;;
29238;SDS011;16267;48.194;11.546;2023-05-07T11:22:43;3.75;;;2.75;;
29238;SDS011;16267;48.194;11.546;2023-05-07T11:25:09;4.32;;;2.63;;
29238;SDS011;16267;48.194;11.546;2023-05-07T11:27:35;4.88;;;2.28;;
29238;SDS011;16267;48.194;11.546;2023-05-07T11:30:01;3.42;;;2.38;;
29238;SDS011;16267;48.194;11.546;2023-05-07T11:32:27;5.22;;;2.65;;
29238;SDS011;16267;48.194;11.546;2023-05-07T11:34:55;3.03;;;2.10;;
29238;SDS011;16267;48.194;11.546;2023-05-07T11:37:24;3.65;;;2.53;;
29238;SDS011;16267;48.194;11.546;2023-05-07T11:40:06;4.97;;;2.40;;
29238;SDS011;16267;48.194;11.546;2023-05-07T11:42:39;3.53;;;2.40;;
29238;SDS011;16267;48.194;11.546;2023-05-07T11:45:07;3.65;;;2.55;;
29238;SDS011;16267;48.194;11.546;2023-05-07T11:47:34;4.88;;;2.45;;
29238;SDS011;16267;48.194;11.546;2023-05-07T11:50:04;5.10;;;2.38;;
29238;SDS011;16267;48.194;11.546;2023-05-07T11:55:14;5.90;;;2.08;;
29238;SDS011;16267;48.194;11.546;2023-05-07T11:57:44;3.35;;;1.60;;
29238;SDS011;16267;48.194;11.546;2023-05-07T12:00:12;4.22;;;1.60;;
29238;SDS011;16267;48.194;11.546;2023-05-07T12:02:41;2.25;;;1.33;;
29238;SDS011;16267;48.194;11.546;2023-05-07T12:05:08;4.10;;;1.50;;
29238;SDS011;16267;48.194;11.546;2023-05-07T12:07:34;2.97;;;1.73;;
29238;SDS011;16267;48.194;11.546;2023-05-07T12:12:50;4.72;;;1.92;;
29238;SDS011;16267;48.194;11.546;2023-05-07T12:15:17;4.05;;;1.60;;
29238;SDS011;16267;48.194;11.546;2023-05-07T12:20:17;6.60;;;1.58;;
29238;SDS011;16267;48.194;11.546;2023-05-07T12:22:43;3.78;;;1.80;;
29238;SDS011;16267;48.194;11.546;2023-05-07T12:25:10;7.25;;;2.00;;
29238;SDS011;16267;48.194;11.546;2023-05-07T12:27:36;5.28;;;1.70;;
29238;SDS011;16267;48.194;11.546;2023-05-07T12:32:36;1.83;;;1.38;;
29238;SDS011;16267;48.194;11.546;2023-05-07T12:35:02;3.15;;;1.60;;
29238;SDS011;16267;48.194;11.546;2023-05-07T12:37:28;2.53;;;1.30;;
29238;SDS011;16267;48.194;11.546;2023-05-07T12:40:03;2.22;;;1.35;;
29238;SDS011;16267;48.194;11.546;2023-05-07T12:42:38;3.65;;;1.30;;
29238;SDS011;16267;48.194;11.546;2023-05-07T12:45:12;2.88;;;1.50;;
29238;SDS011;16267;48.194;11.546;2023-05-07T12:47:44;6.25;;;1.42;;
29238;SDS011;16267;48.194;11.546;2023-05-07T12:50:11;1.63;;;0.95;;
29238;SDS011;16267;48.194;11.546;2023-05-07T12:52:40;5.05;;;1.73;;
29238;SDS011;16267;48.194;11.546;2023-05-07T12:55:07;2.67;;;1.48;;
29238;SDS011;16267;48.194;11.546;2023-05-07T12:58:00;1.33;;;1.05;;
29238;SDS011;16267;48.194;11.546;2023-05-07T13:03:02;4.35;;;1.40;;
29238;SDS011;16267;48.194;11.546;2023-05-07T13:05:27;2.42;;;1.20;;
29238;SDS011;16267;48.194;11.546;2023-05-07T13:07:56;2.97;;;1.30;;
29238;SDS011;16267;48.194;11.546;2023-05-07T13:10:23;2.50;;;1.40;;
29238;SDS011;16267;48.194;11.546;2023-05-07T13:12:49;2.38;;;1.10;;
29238;SDS011;16267;48.194;11.546;2023-05-07T13:15:16;3.25;;;1.40;;
29238;SDS011;16267;48.194;11.546;2023-05-07T13:17:42;2.70;;;1.40;;
29238;SDS011;16267;48.194;11.546;2023-05-07T13:20:09;5.57;;;1.70;;
29238;SDS011;16267;48.194;11.546;2023-05-07T13:22:36;2.88;;;1.73;;
29238;SDS011;16267;48.194;11.546;2023-05-07T13:25:02;3.17;;;1.70;;
29238;SDS011;16267;48.194;11.546;2023-05-07T13:27:28;3.15;;;1.85;;
29238;SDS011;16267;48.194;11.546;2023-05-07T13:29:55;3.47;;;1.83;;
29238;SDS011;16267;48.194;11.546;2023-05-07T13:35:12;6.03;;;2.45;;
29238;SDS011;16267;48.194;11.546;2023-05-07T13:37:38;5.35;;;2.40;;
29238;SDS011;16267;48.194;11.546;2023-05-07T13:40:04;5.00;;;2.13;;
29238;SDS011;16267;48.194;11.546;2023-05-07T13:42:31;4.15;;;1.95;;
29238;SDS011;16267;48.194;11.546;2023-05-07T13:44:57;7.22;;;2.38;;
29238;SDS011;16267;48.194;11.546;2023-05-07T13:47:22;2.80;;;2.13;;
29238;SDS011;16267;48.194;11.546;2023-05-07T13:49:57;6.63;;;2.30;;
29238;SDS011;16267;48.194;11.546;2023-05-07T13:52:23;3.97;;;2.33;;
29238;SDS011;16267;48.194;11.546;2023-05-07T13:54:49;4.30;;;2.60;;
29238;SDS011;16267;48.194;11.546;2023-05-07T13:57:17;3.90;;;2.30;;
29238;SDS011;16267;48.194;11.546;2023-05-07T13:59:43;4.53;;;2.58;;
29238;SDS011;16267;48.194;11.546;2023-05-07T14:02:09;3.13;;;2.20;;
29238;SDS011;16267;48.194;11.546;2023-05-07T14:04:35;3.90;;;2.42;;
29238;SDS011;16267;48.194;11.546;2023-05-07T14:07:02;7.72;;;2.50;;
29238;SDS011;16267;48.194;11.546;2023-05-07T14:09:28;4.20;;;2.35;;
29238;SDS011;16267;48.194;11.546;2023-05-07T14:11:54;2.90;;;2.35;;
29238;SDS011;16267;48.194;11.546;2023-05-07T14:14:20;3.53;;;2.40;;
29238;SDS011;16267;48.194;11.546;2023-05-07T14:16:46;59.75;;;6.32;;
29238;SDS011;16267;48.194;11.546;2023-05-07T14:19:17;6.80;;;2.72;;
29238;SDS011;16267;48.194;11.546;2023-05-07T14:21:47;100.45;;;7.03;;
29238;SDS011;16267;48.194;11.546;2023-05-07T14:24:19;6.35;;;2.85;;
29238;SDS011;16267;48.194;11.546;2023-05-07T14:26:44;5.25;;;3.00;;
29238;SDS011;16267;48.194;11.546;2023-05-07T14:29:10;3.90;;;2.10;;
29238;SDS011;16267;48.194;11.546;2023-05-07T14:31:36;4.97;;;2.25;;
29238;SDS011;16267;48.194;11.546;2023-05-07T14:34:02;4.65;;;1.90;;
29238;SDS011;16267;48.194;11.546;2023-05-07T14:36:28;3.95;;;1.90;;
29238;SDS011;16267;48.194;11.546;2023-05-07T14:38:55;6.65;;;2.10;;
29238;SDS011;16267;48.194;11.546;2023-05-07T14:41:23;2.58;;;1.92;;
29238;SDS011;16267;48.194;11.546;2023-05-07T14:43:49;8.63;;;2.53;;
29238;SDS011;16267;48.194;11.546;2023-05-07T14:46:16;3.63;;;2.00;;
29238;SDS011;16267;48.194;11.546;2023-05-07T14:48:44;3.17;;;2.10;;
29238;SDS011;16267;48.194;11.546;2023-05-07T14:51:13;5.32;;;2.30;;
29238;SDS011;16267;48.194;11.546;2023-05-07T14:53:40;4.00;;;1.83;;
29238;SDS011;16267;48.194;11.546;2023-05-07T14:56:06;7.00;;;2.22;;
29238;SDS011;16267;48.194;11.546;2023-05-07T14:58:33;3.95;;;2.25;;
29238;SDS011;16267;48.194;11.546;2023-05-07T15:00:59;5.60;;;1.73;;
29238;SDS011;16267;48.194;11.546;2023-05-07T15:03:26;3.72;;;2.10;;
29238;SDS011;16267;48.194;11.546;2023-05-07T15:05:53;4.15;;;1.88;;
29238;SDS011;16267;48.194;11.546;2023-05-07T15:08:35;4.95;;;2.10;;
29238;SDS011;16267;48.194;11.546;2023-05-07T15:11:00;4.30;;;1.77;;
29238;SDS011;16267;48.194;11.546;2023-05-07T15:13:26;4.75;;;1.70;;
29238;SDS011;16267;48.194;11.546;2023-05-07T15:15:55;3.25;;;1.85;;
29238;SDS011;16267;48.194;11.546;2023-05-07T15:18:21;4.22;;;1.95;;
29238;SDS011;16267;48.194;11.546;2023-05-07T15:20:50;5.47;;;2.05;;
29238;SDS011;16267;48.194;11.546;2023-05-07T15:23:16;3.25;;;1.80;;
29238;SDS011;16267;48.194;11.546;2023-05-07T15:25:42;3.78;;;1.70;;
29238;SDS011;16267;48.194;11.546;2023-05-07T15:28:20;3.45;;;1.75;;